createdAt,value
2023-02-19T00:01:54.305Z,402.23
2023-02-19T00:04:23.088Z,396.20
2023-02-19T00:06:50.888Z,395.40
2023-02-19T00:09:19.612Z,409.02
2023-02-19T00:11:48.138Z,406.65
2023-02-19T00:14:17.828Z,424.08
2023-02-19T00:16:46.283Z,389.50
2023-02-19T00:19:16.514Z,387.02
2023-02-19T00:21:44.849Z,361.80
2023-02-19T00:24:13.568Z,391.20
2023-02-19T00:26:42.257Z,411.20
2023-02-19T00:29:13.913Z,423.42
2023-02-19T00:34:11.218Z,413.38
2023-02-19T00:36:39.893Z,442.25
2023-02-19T00:39:08.269Z,449.08
2023-02-19T00:41:36.413Z,414.70
2023-02-19T00:44:06.588Z,415.80
2023-02-19T00:46:39.792Z,403.13
2023-02-19T00:49:09.620Z,434.10
2023-02-19T00:51:38.642Z,412.10
2023-02-19T00:54:06.510Z,439.73
2023-02-19T00:56:34.915Z,436.58
2023-02-19T00:59:02.992Z,417.92
2023-02-19T01:01:31.829Z,427.70
2023-02-19T01:03:59.547Z,433.42
2023-02-19T01:06:30.579Z,433.52
2023-02-19T01:08:58.724Z,454.42
2023-02-19T01:11:27.679Z,429.73
2023-02-19T01:13:59.648Z,414.08
2023-02-19T01:16:28.035Z,431.40
2023-02-19T01:18:57.212Z,454.45
2023-02-19T01:21:26.503Z,450.17
2023-02-19T01:23:54.366Z,445.52
2023-02-19T01:26:24.086Z,426.40
2023-02-19T01:28:52.238Z,439.77
2023-02-19T01:31:22.184Z,454.23
2023-02-19T01:33:55.178Z,446.58
2023-02-19T01:36:23.413Z,457.05
2023-02-19T01:38:51.336Z,453.70
2023-02-19T01:41:21.685Z,451.55
2023-02-19T01:44:10.037Z,434.50
2023-02-19T01:46:39.779Z,403.02
2023-02-19T01:49:13.255Z,414.50
2023-02-19T01:52:02.203Z,378.42
2023-02-19T01:54:33.479Z,370.60
2023-02-19T01:57:02.394Z,336.65
2023-02-19T01:59:31.712Z,348.85
2023-02-19T02:01:59.889Z,359.67
2023-02-19T02:04:27.670Z,426.35
2023-02-19T02:06:58.848Z,395.33
2023-02-19T02:09:46.736Z,392.67
2023-02-19T02:12:14.664Z,414.63
2023-02-19T02:14:44.904Z,431.70
2023-02-19T02:17:40.941Z,485.45
2023-02-19T02:20:08.645Z,555.10
2023-02-19T02:22:50.358Z,559.08
2023-02-19T02:25:40.041Z,548.63
2023-02-19T02:28:45.321Z,536.10
2023-02-19T02:31:17.673Z,495.17
2023-02-19T02:34:06.787Z,515.50
2023-02-19T02:36:37.653Z,470.23
2023-02-19T02:39:07.735Z,487.65
2023-02-19T02:41:44.965Z,405.35
2023-02-19T02:44:13.885Z,496.23
2023-02-19T02:46:42.896Z,524.90
2023-02-19T02:49:17.337Z,489.20
2023-02-19T02:51:48.293Z,528.40
2023-02-19T02:54:57.746Z,547.70
2023-02-19T02:57:25.887Z,467.23
2023-02-19T02:59:56.526Z,528.13
2023-02-19T03:02:27.269Z,474.08
2023-02-19T03:05:34.317Z,477.80
2023-02-19T03:08:17.182Z,520.00
2023-02-19T03:10:53.453Z,525.75
2023-02-19T03:13:49.942Z,492.20
2023-02-19T03:16:41.086Z,508.30
2023-02-19T03:19:20.480Z,503.42
2023-02-19T03:21:59.732Z,462.13
2023-02-19T03:24:52.008Z,490.95
2023-02-19T03:27:20.438Z,427.73
2023-02-19T03:29:52.788Z,422.45
2023-02-19T03:32:36.423Z,415.17
2023-02-19T03:35:14.925Z,569.03
2023-02-19T03:38:10.566Z,507.15
2023-02-19T03:40:51.488Z,480.05
2023-02-19T03:43:54.644Z,473.85
2023-02-19T03:46:47.437Z,473.48
2023-02-19T03:49:45.509Z,401.25
2023-02-19T03:52:46.681Z,439.63
2023-02-19T03:55:25.495Z,409.48
2023-02-19T03:58:12.259Z,420.63
2023-02-19T04:00:41.909Z,390.48
2023-02-19T04:04:00.934Z,390.60
2023-02-19T04:06:30.901Z,342.33
2023-02-19T04:09:01.692Z,330.95
2023-02-19T04:11:31.126Z,348.98
2023-02-19T04:14:11.134Z,363.92
2023-02-19T04:16:42.527Z,376.77
2023-02-19T04:19:12.361Z,361.90
2023-02-19T04:21:40.715Z,329.15
2023-02-19T04:24:12.142Z,319.02
2023-02-19T04:26:39.829Z,326.80
2023-02-19T04:29:07.566Z,326.80
2023-02-19T04:31:36.303Z,342.33
2023-02-19T04:34:04.623Z,326.98
2023-02-19T04:36:33.155Z,316.60
2023-02-19T04:39:01.421Z,336.80
2023-02-19T04:41:29.706Z,313.45
2023-02-19T04:43:58.114Z,288.67
2023-02-19T04:46:25.972Z,306.17
2023-02-19T04:48:54.122Z,290.65
2023-02-19T04:51:22.251Z,289.20
2023-02-19T04:53:50.340Z,287.63
2023-02-19T04:56:18.174Z,296.75
2023-02-19T04:58:46.070Z,287.30
2023-02-19T05:01:15.053Z,247.65
2023-02-19T05:03:43.251Z,240.07
2023-02-19T05:06:13.016Z,225.20
2023-02-19T05:08:41.456Z,198.80
2023-02-19T05:11:11.216Z,208.52
2023-02-19T05:13:39.677Z,184.82
2023-02-19T05:16:09.036Z,201.13
2023-02-19T05:18:36.823Z,202.80
2023-02-19T05:21:05.146Z,204.68
2023-02-19T05:23:33.162Z,186.88
2023-02-19T05:26:05.898Z,171.68
2023-02-19T05:28:33.969Z,176.60
2023-02-19T05:31:05.646Z,153.88
2023-02-19T05:33:33.809Z,171.13
2023-02-19T05:36:05.741Z,152.65
2023-02-19T05:38:34.177Z,144.27
2023-02-19T05:41:19.778Z,139.77
2023-02-19T05:43:48.970Z,140.07
2023-02-19T05:46:20.191Z,131.52
2023-02-19T05:48:48.962Z,125.63
2023-02-19T05:51:18.315Z,130.82
2023-02-19T05:53:46.476Z,138.88
2023-02-19T05:56:36.531Z,125.35
2023-02-19T05:59:24.066Z,141.52
2023-02-19T06:01:52.488Z,124.55
2023-02-19T06:04:20.814Z,119.57
2023-02-19T06:06:48.794Z,128.02
2023-02-19T06:09:16.856Z,129.20
2023-02-19T06:11:44.935Z,117.70
2023-02-19T06:14:14.199Z,109.47
2023-02-19T06:16:42.292Z,107.97
2023-02-19T06:19:10.436Z,113.68
2023-02-19T06:21:38.790Z,108.88
2023-02-19T06:24:08.562Z,113.32
2023-02-19T06:26:36.973Z,113.15
2023-02-19T06:29:04.884Z,117.38
2023-02-19T06:31:34.658Z,127.93
2023-02-19T06:34:05.388Z,122.15
2023-02-19T06:36:33.320Z,118.70
2023-02-19T06:39:01.594Z,118.32
2023-02-19T06:41:29.434Z,120.25
2023-02-19T06:44:00.283Z,118.68
2023-02-19T06:46:28.309Z,116.55
2023-02-19T06:48:57.122Z,125.95
2023-02-19T06:51:27.826Z,121.40
2023-02-19T06:53:55.826Z,131.07
2023-02-19T06:56:23.875Z,120.45
2023-02-19T06:58:52.629Z,126.55
2023-02-19T07:01:21.408Z,113.00
2023-02-19T07:03:49.427Z,105.90
2023-02-19T07:06:17.274Z,118.43
2023-02-19T07:08:45.571Z,107.15
2023-02-19T07:11:13.773Z,118.63
2023-02-19T07:13:41.585Z,107.30
2023-02-19T07:16:10.499Z,110.60
2023-02-19T07:18:38.674Z,104.88
2023-02-19T07:21:11.511Z,78.35
2023-02-19T07:23:39.719Z,92.00
2023-02-19T07:26:14.768Z,90.18
2023-02-19T07:28:46.795Z,90.03
2023-02-19T07:31:15.385Z,87.95
2023-02-19T07:33:47.236Z,78.47
2023-02-19T07:36:15.780Z,83.38
2023-02-19T07:38:43.824Z,76.53
2023-02-19T07:41:12.059Z,78.07
2023-02-19T07:43:40.186Z,81.68
2023-02-19T07:46:10.343Z,71.43
2023-02-19T07:48:38.774Z,80.03
2023-02-19T07:51:08.325Z,73.57
2023-02-19T07:53:36.698Z,74.13
2023-02-19T07:56:06.094Z,77.50
2023-02-19T07:58:34.090Z,62.50
2023-02-19T08:01:40.952Z,72.43
2023-02-19T08:04:12.833Z,68.57
2023-02-19T08:06:40.983Z,65.30
2023-02-19T08:09:08.901Z,67.53
2023-02-19T08:11:55.377Z,65.47
2023-02-19T08:14:27.230Z,64.97
2023-02-19T08:16:55.681Z,63.83
2023-02-19T08:19:23.603Z,63.65
2023-02-19T08:21:51.952Z,70.63
2023-02-19T08:24:20.057Z,67.50
2023-02-19T08:26:48.239Z,67.82
2023-02-19T08:29:15.947Z,64.75
2023-02-19T08:31:44.030Z,67.57
2023-02-19T08:34:12.154Z,68.80
2023-02-19T08:36:40.313Z,65.13
2023-02-19T08:39:08.561Z,66.05
2023-02-19T08:41:37.034Z,68.32
2023-02-19T08:44:04.974Z,62.58
2023-02-19T08:46:34.415Z,58.20
2023-02-19T08:49:02.907Z,61.92
2023-02-19T08:51:30.675Z,60.17
2023-02-19T08:53:58.762Z,56.80
2023-02-19T08:56:26.813Z,67.18
2023-02-19T08:58:55.574Z,65.70
2023-02-19T09:01:24.260Z,67.97
2023-02-19T09:03:52.182Z,64.18
2023-02-19T09:06:20.920Z,60.58
2023-02-19T09:08:49.116Z,64.95
2023-02-19T09:11:17.330Z,64.53
2023-02-19T09:13:45.309Z,71.07
2023-02-19T09:16:13.199Z,57.70
2023-02-19T09:18:41.328Z,68.28
2023-02-19T09:21:09.996Z,68.90
2023-02-19T09:23:38.245Z,68.60
2023-02-19T09:26:09.296Z,75.80
2023-02-19T09:28:37.933Z,76.45
2023-02-19T09:31:07.490Z,88.72
2023-02-19T09:33:35.678Z,84.55
2023-02-19T09:36:03.994Z,90.43
2023-02-19T09:38:32.197Z,80.00
2023-02-19T09:41:00.176Z,93.00
2023-02-19T09:43:28.830Z,79.10
2023-02-19T09:46:03.650Z,88.63
2023-02-19T09:48:31.484Z,83.60
2023-02-19T09:50:59.670Z,89.07
2023-02-19T09:53:30.154Z,86.97
2023-02-19T09:55:57.990Z,93.00
2023-02-19T09:58:27.532Z,92.68
2023-02-19T10:00:56.111Z,100.38
2023-02-19T10:03:31.521Z,97.35
2023-02-19T10:06:05.140Z,98.45
2023-02-19T10:08:35.278Z,107.18
2023-02-19T10:11:04.170Z,93.40
2023-02-19T10:14:10.826Z,100.05
2023-02-19T10:16:42.868Z,101.65
2023-02-19T10:19:18.887Z,114.30
2023-02-19T10:21:46.799Z,123.45
2023-02-19T10:24:21.471Z,121.50
2023-02-19T10:26:50.639Z,119.68
2023-02-19T10:29:20.058Z,101.25
2023-02-19T10:31:48.490Z,98.70
2023-02-19T10:34:22.614Z,75.90
2023-02-19T10:36:51.553Z,92.97
2023-02-19T10:39:45.279Z,81.80
2023-02-19T10:42:21.430Z,80.93
2023-02-19T10:44:59.257Z,83.78
2023-02-19T10:47:27.724Z,79.38
2023-02-19T10:49:57.517Z,84.00
2023-02-19T10:52:27.070Z,84.10
2023-02-19T10:55:16.533Z,91.90
2023-02-19T10:57:44.464Z,81.55
2023-02-19T11:00:30.847Z,86.78
2023-02-19T11:03:15.303Z,90.05
2023-02-19T11:06:03.187Z,73.47
2023-02-19T11:08:31.600Z,86.35
2023-02-19T11:10:59.727Z,87.22
2023-02-19T11:13:33.389Z,95.88
2023-02-19T11:16:01.566Z,84.53
2023-02-19T11:18:31.662Z,79.88
2023-02-19T11:21:01.114Z,70.22
2023-02-19T11:23:50.268Z,73.35
2023-02-19T11:26:23.671Z,70.22
2023-02-19T11:29:02.033Z,68.13
2023-02-19T11:31:33.859Z,70.88
2023-02-19T11:34:02.455Z,71.38
2023-02-19T11:36:39.717Z,71.13
2023-02-19T11:39:10.776Z,78.57
2023-02-19T11:42:03.272Z,79.43
2023-02-19T11:44:37.154Z,74.38
2023-02-19T11:47:26.948Z,65.68
2023-02-19T11:50:09.460Z,63.20
2023-02-19T11:52:43.408Z,65.68
2023-02-19T11:55:18.514Z,68.30
2023-02-19T11:58:03.607Z,66.93
2023-02-19T12:00:31.772Z,70.63
2023-02-19T12:03:21.828Z,65.40
2023-02-19T12:06:04.990Z,81.28
2023-02-19T12:08:42.154Z,79.43
2023-02-19T12:11:19.144Z,80.50
2023-02-19T12:14:19.035Z,85.18
2023-02-19T12:17:02.621Z,84.25
2023-02-19T12:19:33.465Z,99.65
2023-02-19T12:22:41.982Z,96.50
2023-02-19T12:25:29.336Z,95.45
2023-02-19T12:28:10.190Z,112.63
2023-02-19T12:31:00.454Z,107.10
2023-02-19T12:33:46.863Z,117.47
2023-02-19T12:36:59.897Z,138.52
2023-02-19T12:39:40.084Z,183.18
2023-02-19T12:42:11.979Z,241.63
2023-02-19T12:44:47.516Z,284.70
2023-02-19T12:47:21.415Z,283.10
2023-02-19T12:50:17.462Z,285.05
2023-02-19T12:52:47.276Z,205.82
2023-02-19T12:55:36.998Z,241.00
2023-02-19T12:58:06.581Z,285.13
2023-02-19T13:00:45.817Z,329.40
2023-02-19T13:03:23.602Z,183.98
2023-02-19T13:06:22.409Z,134.40
2023-02-19T13:09:19.354Z,134.10
2023-02-19T13:12:06.235Z,154.45
2023-02-19T13:14:43.133Z,147.77
2023-02-19T13:17:25.152Z,145.27
2023-02-19T13:19:58.058Z,128.80
2023-02-19T13:25:56.671Z,166.73
2023-02-19T13:28:43.304Z,180.32
2023-02-19T13:31:41.217Z,252.63
2023-02-19T13:34:33.613Z,289.00
2023-02-19T13:37:01.791Z,265.27
2023-02-19T13:39:31.135Z,259.65
2023-02-19T13:42:02.192Z,240.25
2023-02-19T13:44:34.265Z,268.23
2023-02-19T13:47:06.834Z,226.88
2023-02-19T13:49:35.034Z,208.15
2023-02-19T13:52:24.908Z,199.63
2023-02-19T13:54:53.505Z,246.55
2023-02-19T13:57:24.916Z,249.02
2023-02-19T14:00:02.083Z,285.33
2023-02-19T14:02:35.946Z,285.75
2023-02-19T14:05:11.575Z,309.60
2023-02-19T14:07:51.369Z,328.40
2023-02-19T14:10:58.413Z,346.42
2023-02-19T14:13:52.437Z,335.70
2023-02-19T14:16:50.133Z,293.67
2023-02-19T14:19:43.353Z,293.85
2023-02-19T14:22:48.303Z,307.75
2023-02-19T14:25:31.501Z,309.70
2023-02-19T14:28:08.140Z,289.98
2023-02-19T14:30:52.899Z,311.58
2023-02-19T14:33:26.164Z,338.10
2023-02-19T14:36:22.981Z,305.52
2023-02-19T14:39:28.316Z,347.63
2023-02-19T14:42:16.863Z,369.92
2023-02-19T14:44:53.263Z,399.52
2023-02-19T14:47:22.551Z,386.02
2023-02-19T14:49:51.894Z,422.00
2023-02-19T14:52:25.557Z,438.08
2023-02-19T14:55:02.275Z,443.83
2023-02-19T14:57:34.521Z,426.13
2023-02-19T15:00:20.320Z,438.77
2023-02-19T15:02:48.537Z,463.30
2023-02-19T15:05:23.652Z,579.30
2023-02-19T15:07:52.037Z,572.90
2023-02-19T15:10:20.251Z,597.67
2023-02-19T15:12:52.770Z,623.78
2023-02-19T15:15:26.631Z,604.35
2023-02-19T15:17:54.835Z,553.67
2023-02-19T15:20:27.978Z,527.40
2023-02-19T15:22:56.723Z,506.70
2023-02-19T15:25:26.779Z,497.73
2023-02-19T15:27:54.987Z,450.17
2023-02-19T15:30:29.755Z,469.17
2023-02-19T15:32:59.705Z,473.35
2023-02-19T15:35:28.842Z,473.30
2023-02-19T15:37:56.821Z,465.00
2023-02-19T15:40:33.379Z,455.20
2023-02-19T15:43:01.603Z,423.00
2023-02-19T15:45:29.702Z,449.67
2023-02-19T15:48:08.874Z,455.42
2023-02-19T15:50:40.265Z,441.80
2023-02-19T15:53:10.637Z,440.15
2023-02-19T15:55:48.787Z,421.00
2023-02-19T15:58:28.874Z,437.52
2023-02-19T16:01:00.107Z,429.10
2023-02-19T16:03:28.458Z,423.40
2023-02-19T16:06:15.681Z,433.13
2023-02-19T16:08:48.284Z,431.95
2023-02-19T16:13:53.932Z,406.98
2023-02-19T16:16:27.265Z,425.10
2023-02-19T16:18:55.347Z,423.08
2023-02-19T16:21:26.269Z,372.85
2023-02-19T16:24:15.132Z,381.13
2023-02-19T16:26:43.757Z,385.00
2023-02-19T16:29:28.780Z,421.50
2023-02-19T16:31:59.093Z,392.83
2023-02-19T16:34:35.007Z,368.10
2023-02-19T16:37:03.449Z,389.67
2023-02-19T16:39:31.292Z,420.17
2023-02-19T16:42:02.663Z,392.13
2023-02-19T16:44:31.587Z,392.55
2023-02-19T16:47:04.384Z,387.15
2023-02-19T16:51:59.937Z,427.27
2023-02-19T16:54:28.527Z,420.25
2023-02-19T16:56:56.853Z,292.83
2023-02-19T16:59:25.071Z,361.05
2023-02-19T17:01:53.227Z,342.27
2023-02-19T17:04:21.269Z,300.67
2023-02-19T17:06:49.054Z,355.25
2023-02-19T17:09:16.945Z,375.00
2023-02-19T17:11:44.729Z,344.63
2023-02-19T17:14:12.434Z,366.60
2023-02-19T17:16:40.866Z,381.85
2023-02-19T17:19:17.455Z,378.63
2023-02-19T17:21:45.833Z,388.48
2023-02-19T17:24:13.932Z,368.70
2023-02-19T17:26:41.840Z,373.25
2023-02-19T17:29:14.339Z,346.77
2023-02-19T17:31:42.564Z,359.05
2023-02-19T17:34:10.822Z,353.38
2023-02-19T17:36:38.709Z,346.40
2023-02-19T17:39:14.981Z,392.15
2023-02-19T17:41:42.756Z,325.52
2023-02-19T17:44:11.178Z,363.95
2023-02-19T17:46:39.499Z,375.27
2023-02-19T17:49:07.884Z,397.17
2023-02-19T17:51:36.066Z,382.83
2023-02-19T17:54:04.554Z,368.98
2023-02-19T17:56:33.270Z,325.77
2023-02-19T17:59:01.004Z,307.80
2023-02-19T18:01:28.945Z,343.95
2023-02-19T18:03:56.811Z,352.50
2023-02-19T18:06:24.585Z,346.77
2023-02-19T18:08:53.606Z,334.58
2023-02-19T18:11:23.672Z,336.60
2023-02-19T18:13:51.989Z,394.30
2023-02-19T18:16:20.387Z,371.52
2023-02-19T18:18:48.226Z,331.77
2023-02-19T18:21:16.648Z,295.85
2023-02-19T18:23:46.416Z,277.75
2023-02-19T18:26:19.224Z,281.33
2023-02-19T18:28:47.236Z,260.05
2023-02-19T18:31:15.644Z,251.18
2023-02-19T18:33:43.962Z,308.80
2023-02-19T18:36:13.131Z,331.20
2023-02-19T18:38:41.164Z,350.73
2023-02-19T18:41:12.937Z,341.95
2023-02-19T18:43:42.505Z,369.42
2023-02-19T18:46:10.493Z,358.98
2023-02-19T18:48:38.436Z,317.80
2023-02-19T18:51:09.789Z,347.08
2023-02-19T18:53:38.470Z,335.17
2023-02-19T18:56:09.322Z,319.67
2023-02-19T18:58:37.399Z,311.50
2023-02-19T19:01:05.739Z,327.48
2023-02-19T19:03:33.596Z,332.42
2023-02-19T19:06:03.718Z,326.20
2023-02-19T19:08:31.915Z,335.33
2023-02-19T19:10:59.860Z,348.70
2023-02-19T19:13:27.797Z,346.08
2023-02-19T19:15:55.547Z,343.67
2023-02-19T19:18:23.903Z,344.80
2023-02-19T19:20:51.935Z,317.70
2023-02-19T19:23:19.729Z,333.30
2023-02-19T19:25:47.781Z,337.75
2023-02-19T19:28:15.559Z,334.10
2023-02-19T19:30:43.775Z,324.70
2023-02-19T19:33:12.110Z,325.90
2023-02-19T19:35:41.854Z,335.70
2023-02-19T19:38:10.482Z,341.02
2023-02-19T19:40:39.053Z,330.23
2023-02-19T19:43:06.943Z,328.58
2023-02-19T19:45:35.107Z,324.73
2023-02-19T19:48:02.865Z,330.85
2023-02-19T19:50:31.321Z,342.00
2023-02-19T19:52:59.709Z,353.00
2023-02-19T19:55:27.428Z,344.23
2023-02-19T19:57:55.168Z,342.17
2023-02-19T20:00:24.857Z,353.00
2023-02-19T20:02:53.394Z,322.13
2023-02-19T20:05:21.345Z,321.30
2023-02-19T20:07:50.368Z,316.65
2023-02-19T20:10:19.935Z,360.27
2023-02-19T20:12:48.131Z,350.00
2023-02-19T20:15:20.849Z,356.00
2023-02-19T20:17:49.350Z,345.30
2023-02-19T20:20:18.492Z,322.27
2023-02-19T20:22:46.796Z,280.05
2023-02-19T20:25:14.783Z,235.90
2023-02-19T20:27:43.125Z,236.77
2023-02-19T20:30:12.553Z,239.32
2023-02-19T20:32:40.940Z,248.57
2023-02-19T20:35:08.742Z,317.10
2023-02-19T20:37:40.279Z,296.88
2023-02-19T20:40:08.613Z,313.38
2023-02-19T20:42:36.636Z,272.65
2023-02-19T20:45:05.869Z,254.50
2023-02-19T20:47:33.632Z,275.70
2023-02-19T20:50:01.912Z,308.20
2023-02-19T20:52:30.181Z,310.38
2023-02-19T20:54:58.229Z,302.77
2023-02-19T20:57:25.931Z,326.55
2023-02-19T20:59:54.378Z,327.45
2023-02-19T21:02:24.981Z,310.20
2023-02-19T21:04:52.806Z,344.05
2023-02-19T21:07:20.773Z,316.52
2023-02-19T21:09:48.817Z,314.00
2023-02-19T21:12:17.301Z,376.77
2023-02-19T21:14:45.382Z,364.38
2023-02-19T21:17:13.465Z,374.75
2023-02-19T21:19:41.840Z,371.45
2023-02-19T21:22:09.909Z,343.73
2023-02-19T21:24:38.137Z,377.33
2023-02-19T21:27:05.839Z,371.40
2023-02-19T21:29:33.739Z,402.33
2023-02-19T21:32:02.165Z,390.92
2023-02-19T21:34:30.870Z,411.52
2023-02-19T21:37:00.417Z,427.27
2023-02-19T21:39:28.601Z,452.58
2023-02-19T21:41:58.949Z,463.90
2023-02-19T21:44:27.049Z,523.92
2023-02-19T21:46:54.840Z,545.25
2023-02-19T21:49:22.896Z,566.97
2023-02-19T21:51:50.998Z,572.13
2023-02-19T21:54:22.121Z,484.90
2023-02-19T21:56:49.928Z,542.75
2023-02-19T21:59:17.761Z,527.55
2023-02-19T22:01:46.172Z,538.55
2023-02-19T22:04:15.806Z,554.38
2023-02-19T22:06:43.727Z,546.88
2023-02-19T22:09:11.751Z,524.25
2023-02-19T22:11:39.504Z,486.27
2023-02-19T22:14:07.626Z,510.30
2023-02-19T22:16:35.327Z,539.75
2023-02-19T22:19:03.564Z,506.83
2023-02-19T22:21:33.263Z,515.40
2023-02-19T22:24:02.181Z,509.83
2023-02-19T22:26:35.235Z,488.98
2023-02-19T22:29:08.421Z,490.25
2023-02-19T22:31:36.891Z,478.08
2023-02-19T22:34:04.865Z,442.05
2023-02-19T22:36:33.980Z,451.27
2023-02-19T22:39:02.616Z,365.30
2023-02-19T22:41:31.017Z,422.67
2023-02-19T22:43:59.417Z,424.60
2023-02-19T22:46:31.043Z,416.92
2023-02-19T22:48:58.952Z,434.58
2023-02-19T22:51:26.676Z,419.25
2023-02-19T22:53:56.060Z,439.77
2023-02-19T22:56:27.759Z,454.80
2023-02-19T22:58:56.709Z,478.10
2023-02-19T23:01:24.660Z,451.30
2023-02-19T23:03:54.943Z,461.55
2023-02-19T23:06:27.810Z,483.52
2023-02-19T23:08:57.023Z,452.75
2023-02-19T23:11:30.468Z,487.58
2023-02-19T23:13:58.350Z,484.08
2023-02-19T23:16:26.522Z,411.15
2023-02-19T23:18:55.036Z,392.10
2023-02-19T23:21:23.129Z,428.02
2023-02-19T23:23:51.512Z,486.60
2023-02-19T23:26:20.222Z,411.38
2023-02-19T23:28:48.504Z,463.95
2023-02-19T23:31:16.645Z,456.52
2023-02-19T23:33:44.954Z,435.05
2023-02-19T23:36:13.313Z,479.45
2023-02-19T23:38:41.422Z,408.58
2023-02-19T23:41:12.558Z,333.73
2023-02-19T23:43:40.743Z,326.55
2023-02-19T23:46:08.865Z,299.00
2023-02-19T23:48:37.192Z,425.00
2023-02-19T23:51:05.173Z,459.48
2023-02-19T23:53:33.290Z,475.98
2023-02-19T23:56:01.006Z,486.63
2023-02-19T23:58:29.230Z,505.65
